FALEFAKM

Guest
Details From FALE - DURBAN - KING SHAKA INTERNATIONAL
To FAKM - Kimberley
Flight Number -
Tags generated
Created
Modified
Stats Distance 339 nm / 628 km
Max Altitude 34,000 ft / 10,363 m
Waypoints 6
Social Downloads 1
Likes 0
Share VATSIM

Download

Looking for another format? Having issues loading an existing format? Contact us
Advertisement - Login to hide

Notes

Basic altitude profile: - Ascent Rate: 2500ft/min - Ascent Speed: 250kts - Cruise Altitude: 35000ft - Cruise Speed: 420kts - Descent Rate: 1500ft/min - Descent Speed: 250kts Options: - Use NATs: yes - Use PACOTS: yes - Use low airways: yes - Use high airways: yes

Route

FALE PMV UW61 BLV FAKM

ID Type Via Altitude Latitude Longitude Leg Dist Tot Dist Heading (true) Name
O FALE APT - 0 ft / 0 m -29.61177˚ 31.11931˚ - 0 nm - DURBAN - KING SHAKA INTERNATIONAL
PMV VOR - 12,400 ft / 3,780 m -29.64781˚ 30.40036˚ 37 nm 37 nm 267° / 267° PIETERMARITZBURG VOR-DME
NIDEM FIX UW61 (AWY-HI) 34,000 ft / 10,363 m -29.56931˚ 28.73586˚ 87 nm 124 nm 273° / 274° -
MZV VOR UW61 (AWY-HI) 32,500 ft / 9,906 m -29.50039˚ 27.54063˚ 62 nm 187 nm 273° / 274° MAZENOD VOR-DME
BLV VOR UW61 (AWY-HI) 20,000 ft / 6,096 m -29.10050˚ 26.30066˚ 69 nm 256 nm 290° / 291° BLOEMFONTEIN VORTAC
O FAKM APT - 0 ft / 0 m -28.80475˚ 24.76400˚ 82 nm 339 nm 282° / 283° Kimberley

Altitude Profile

Advertisement - Login to hide

Weather


0- 5 10 15 20 25 30 35+ Temperature / ° C

Clouds and Precipitation
Forecast for 2017-12-16 00:00 UTC. Updated 32 minutes ago

Ground ~20,000 ft ~40,000 ft Winds

FALE

Details ICAO FALE
Name DURBAN - KING SHAKA INTERNATIONAL
Region South Africa
Timezone Africa/Johannesburg (UTC+2.0)
Stats Elevation 304 ft / 93 m (AMSL)
Location -29.611771° 31.119312°
Runways 1
Magnetic Variation 25.284° W

METAR

FALE 152300Z 03004KT CAVOK 17/14 Q1017 NOSIG

Decode

TAF

Not found

Departure Runways

ID Width Length Bearing (true) Bearing (mag) Surface Threshold Offset Overrun Length
06 200 ft / 61 m 12,158 ft / 3,706 m 37.13° 62.41° Asphalt 0 ft / 0 m 0 ft / 0 m
24 200 ft / 61 m 12,158 ft / 3,706 m 217.12° 242.40° Asphalt 0 ft / 0 m 0 ft / 0 m

FAKM

Details ICAO FAKM (KIM)
Name Kimberley
Region South Africa
Timezone Africa/Johannesburg (UTC+2.0)
Stats Elevation 3,950 ft / 1,204 m (AMSL)
Location -28.804751° 24.763997°
Runways 2
Magnetic Variation 21.456° W

METAR

FAKM 152300Z AUTO 02005KT //// 20/02 Q1017

Decode

TAF

Not found

Destination Runways

ID Width Length Bearing (true) Bearing (mag) Surface Threshold Offset Overrun Length
02 150 ft / 46 m 9,851 ft / 3,003 m 0.00° 21.46° Asphalt 0 ft / 0 m 0 ft / 0 m
10 148 ft / 45 m 8,010 ft / 2,441 m 80.28° 101.74° Asphalt 0 ft / 0 m 0 ft / 0 m
20 150 ft / 46 m 9,851 ft / 3,003 m 180.00° 201.46° Asphalt 0 ft / 0 m 0 ft / 0 m
28 148 ft / 45 m 8,010 ft / 2,441 m 260.26° 281.72° Asphalt 0 ft / 0 m 0 ft / 0 m

Popular Alternatives